Time;durP1;ratioP1;P1;durP2;ratioP2;P2;SDS_P1;SDS_P2;PMS_P1;PMS_P2;Temp;Humidity;BMP_temperature;BMP_pressure;BME280_temperature;BME280_humidity;BME280_pressure;Samples;Min_cycle;Max_cycle;Signal;HPM_P1;HPM_P2
2023/08/16 00:02:15;;;;;;;12.00;7.95;;;;;;;23.56;85.31;100240.75;5032813;28;20037;-70
2023/08/16 00:04:41;;;;;;;12.57;7.80;;;;;;;23.59;85.58;100268.81;5033331;28;20033;-72
2023/08/16 00:07:07;;;;;;;9.13;7.63;;;;;;;23.45;86.50;100262.91;5032723;28;20046;-74
2023/08/16 00:09:33;;;;;;;11.93;7.72;;;;;;;23.45;86.58;100265.56;5032710;28;20104;-69
2023/08/16 00:11:58;;;;;;;12.88;7.70;;;;;;;23.51;86.62;100262.81;5033168;28;20056;-70
2023/08/16 00:14:24;;;;;;;13.35;7.68;;;;;;;23.52;86.40;100268.03;5032637;28;20029;-73
2023/08/16 00:16:49;;;;;;;11.40;7.63;;;;;;;23.45;86.75;100270.81;5032574;28;20034;-72
2023/08/16 00:19:15;;;;;;;11.88;8.00;;;;;;;23.42;86.38;100258.59;5032651;28;20022;-69
2023/08/16 00:21:40;;;;;;;12.02;8.27;;;;;;;23.32;86.39;100244.72;5032729;28;20055;-70
2023/08/16 00:24:06;;;;;;;12.55;8.25;;;;;;;23.46;86.56;100267.31;5032820;28;20045;-71
2023/08/16 00:26:32;;;;;;;12.43;8.38;;;;;;;23.50;86.38;100261.94;5032509;28;20065;-69
2023/08/16 00:28:57;;;;;;;13.98;8.75;;;;;;;23.55;85.84;100272.38;5032379;28;20124;-69
2023/08/16 00:31:23;;;;;;;12.57;8.77;;;;;;;23.49;86.22;100276.00;5032435;28;20476;-69
2023/08/16 00:33:49;;;;;;;14.93;8.98;;;;;;;23.40;86.21;100260.38;5032693;28;20038;-70
2023/08/16 00:36:14;;;;;;;13.77;9.38;;;;;;;23.54;85.58;100281.16;5032449;28;20036;-70
2023/08/16 00:38:42;;;;;;;15.20;8.52;;;;;;;23.47;86.33;100271.66;5031854;28;20504;-70
2023/08/16 00:41:12;;;;;;;11.10;8.02;;;;;;;23.35;86.59;100271.00;5032018;28;20654;-70
2023/08/16 00:43:38;;;;;;;11.65;8.07;;;;;;;23.42;86.01;100279.66;5031869;28;20032;-72
2023/08/16 00:46:06;;;;;;;13.13;8.77;;;;;;;23.30;86.73;100275.47;5032330;28;20488;-75
2023/08/16 00:48:32;;;;;;;12.60;8.73;;;;;;;23.16;87.16;100259.94;5032259;28;20029;-69
2023/08/16 00:50:59;;;;;;;11.27;8.80;;;;;;;23.37;86.24;100277.09;5031977;28;20686;-69
2023/08/16 00:53:27;;;;;;;13.27;9.00;;;;;;;23.35;86.37;100271.00;5031779;28;20083;-75
2023/08/16 00:55:52;;;;;;;14.45;9.02;;;;;;;23.33;86.32;100277.19;5031922;28;20448;-70
2023/08/16 00:58:18;;;;;;;11.98;8.45;;;;;;;23.22;86.16;100238.75;5031941;28;20036;-70
2023/08/16 01:00:43;;;;;;;14.90;8.68;;;;;;;23.47;86.31;100283.06;5032042;28;20037;-70
2023/08/16 01:03:09;;;;;;;12.02;8.55;;;;;;;23.44;86.25;100285.78;5032105;28;20029;-70
2023/08/16 01:05:35;;;;;;;11.80;8.57;;;;;;;23.44;85.87;100272.59;5031948;28;20044;-70
2023/08/16 01:08:01;;;;;;;11.48;8.63;;;;;;;23.29;86.48;100271.13;5031693;28;20452;-69
2023/08/16 01:10:54;;;;;;;15.10;9.30;;;;;;;23.20;87.06;100279.19;5031694;28;20030;-70
2023/08/16 01:13:27;;;;;;;11.15;8.95;;;;;;;22.96;87.89;100265.53;4932047;29;20549;-70
2023/08/16 01:15:56;;;;;;;12.50;9.38;;;;;;;22.80;88.34;100243.88;4932119;29;20045;-70
2023/08/16 01:18:24;;;;;;;13.82;9.00;;;;;;;23.05;88.09;100269.78;4930085;29;20047;-70
2023/08/16 01:20:52;;;;;;;12.55;9.25;;;;;;;23.02;87.77;100265.44;4915805;29;20418;-69
2023/08/16 01:23:41;;;;;;;10.02;8.10;;;;;;;23.10;87.06;100275.81;4931505;29;20487;-70
2023/08/16 01:26:31;;;;;;;11.60;8.47;;;;;;;22.90;88.12;100278.81;4893902;29;20060;-71
2023/08/16 01:28:59;;;;;;;11.27;8.73;;;;;;;22.81;88.45;100282.47;4893785;29;20032;-70
2023/08/16 01:31:25;;;;;;;13.35;8.40;;;;;;;22.82;88.48;100276.31;4894074;29;20047;-69
2023/08/16 01:33:51;;;;;;;11.55;8.35;;;;;;;22.97;87.35;100287.44;4893559;29;20487;-69
2023/08/16 01:36:16;;;;;;;15.02;9.27;;;;;;;22.98;87.78;100282.19;4893572;29;20040;-70
2023/08/16 01:38:42;;;;;;;11.63;8.35;;;;;;;22.77;88.80;100286.91;4893602;29;20064;-69
2023/08/16 01:41:13;;;;;;;15.90;9.52;;;;;;;22.45;88.89;100242.69;4893782;29;20040;-75
2023/08/16 01:43:43;;;;;;;13.48;8.85;;;;;;;22.66;88.88;100280.94;4893693;29;20045;-70
2023/08/16 01:46:09;;;;;;;13.98;8.40;;;;;;;22.63;89.34;100294.16;4893037;29;20520;-71
2023/08/16 01:48:36;;;;;;;14.00;9.00;;;;;;;22.38;90.28;100281.38;4893683;29;20096;-71
2023/08/16 01:51:02;;;;;;;10.63;8.85;;;;;;;22.35;91.02;100291.06;4938755;29;20820;-69
2023/08/16 01:53:28;;;;;;;11.15;9.23;;;;;;;22.22;91.63;100278.06;4933749;29;20039;-74
2023/08/16 01:55:54;;;;;;;13.73;8.85;;;;;;;22.20;91.58;100268.47;4931183;29;20047;-70
2023/08/16 01:58:19;;;;;;;10.57;8.55;;;;;;;22.38;90.56;100270.88;4931091;29;20104;-70
2023/08/16 02:00:44;;;;;;;14.63;9.02;;;;;;;22.55;89.57;100264.47;4930641;29;20084;-70
2023/08/16 02:03:10;;;;;;;14.02;9.15;;;;;;;22.65;90.23;100266.06;4971391;28;20073;-69
2023/08/16 02:05:35;;;;;;;13.77;9.27;;;;;;;22.50;89.48;100230.34;5011024;28;20536;-69
2023/08/16 02:08:01;;;;;;;13.23;9.40;;;;;;;22.67;89.19;100259.00;5010603;28;20026;-69
2023/08/16 02:10:27;;;;;;;13.60;9.70;;;;;;;22.54;89.47;100236.41;5010572;28;20393;-69
2023/08/16 02:12:52;;;;;;;11.27;8.90;;;;;;;22.39;90.27;100235.78;5010892;28;20404;-69
2023/08/16 02:15:17;;;;;;;12.35;9.30;;;;;;;22.41;90.24;100239.25;5010733;28;20033;-71
2023/08/16 02:17:43;;;;;;;15.80;9.55;;;;;;;22.46;89.98;100247.94;5010486;28;20038;-70
2023/08/16 02:20:09;;;;;;;13.85;9.77;;;;;;;22.41;90.16;100244.50;5010773;28;20496;-68
2023/08/16 02:22:35;;;;;;;10.88;9.73;;;;;;;22.35;90.69;100255.09;5010859;28;20401;-71
2023/08/16 02:25:00;;;;;;;15.30;9.50;;;;;;;21.98;91.03;100203.94;5003767;28;20095;-70
2023/08/16 02:27:26;;;;;;;12.25;9.07;;;;;;;22.38;90.18;100257.72;5030148;28;20467;-69
2023/08/16 02:29:52;;;;;;;12.02;9.18;;;;;;;22.47;90.37;100246.19;5030193;28;20056;-70
2023/08/16 02:32:18;;;;;;;15.10;10.23;;;;;;;22.57;89.56;100239.88;5030403;28;20532;-70
2023/08/16 02:34:44;;;;;;;13.68;9.43;;;;;;;22.69;89.36;100243.19;5030142;28;20064;-69
2023/08/16 02:37:10;;;;;;;10.77;9.18;;;;;;;22.77;89.07;100239.53;5029878;28;20061;-73
2023/08/16 02:39:35;;;;;;;13.13;8.90;;;;;;;22.67;88.31;100211.66;5030287;28;20484;-69
2023/08/16 02:42:02;;;;;;;12.85;9.02;;;;;;;22.41;88.07;100178.75;5029979;28;20030;-71
2023/08/16 02:44:27;;;;;;;12.45;9.30;;;;;;;22.75;88.20;100222.91;5029801;28;20029;-70
2023/08/16 02:46:52;;;;;;;14.73;8.98;;;;;;;22.75;88.57;100236.06;5029798;28;20048;-69
2023/08/16 02:49:18;;;;;;;17.15;9.30;;;;;;;22.77;87.89;100236.91;5030261;28;20022;-70
2023/08/16 02:51:43;;;;;;;11.65;9.15;;;;;;;22.77;88.57;100233.41;5030288;28;20465;-69
2023/08/16 02:54:09;;;;;;;13.70;9.55;;;;;;;22.72;88.46;100235.25;5030212;28;20032;-69
2023/08/16 02:56:34;;;;;;;15.25;9.77;;;;;;;22.71;88.48;100244.91;5018762;28;20057;-72
2023/08/16 02:59:00;;;;;;;14.75;9.45;;;;;;;22.82;88.23;100246.47;5010142;28;20113;-73
2023/08/16 03:01:25;;;;;;;12.60;9.55;;;;;;;22.74;88.47;100249.25;5010096;28;20029;-69
2023/08/16 03:03:51;;;;;;;20.58;10.13;;;;;;;22.73;88.28;100244.88;5010164;28;20029;-69
2023/08/16 03:06:16;;;;;;;12.93;9.57;;;;;;;22.70;87.97;100245.78;5010365;28;20038;-69
2023/08/16 03:08:42;;;;;;;13.43;9.13;;;;;;;22.82;87.43;100252.63;5010010;28;20026;-70
2023/08/16 03:11:07;;;;;;;16.20;9.55;;;;;;;22.85;87.31;100252.56;5010046;28;20088;-76
2023/08/16 03:13:32;;;;;;;13.00;9.93;;;;;;;22.74;86.37;100260.66;5011199;28;20030;-69
2023/08/16 03:15:58;;;;;;;12.82;9.55;;;;;;;22.40;86.71;100248.03;5013756;28;20037;-70
2023/08/16 03:18:23;;;;;;;13.60;10.38;;;;;;;22.25;87.63;100256.13;5014207;28;20029;-69
2023/08/16 03:20:49;;;;;;;18.10;10.70;;;;;;;22.09;88.70;100247.59;5014017;28;20058;-70
2023/08/16 03:23:15;;;;;;;15.25;10.52;;;;;;;22.30;88.53;100259.56;5013878;28;20469;-76
2023/08/16 03:25:41;;;;;;;15.55;9.95;;;;;;;22.01;88.62;100210.91;5013646;28;20026;-69
2023/08/16 03:28:06;;;;;;;16.30;10.00;;;;;;;22.34;88.81;100260.38;5014011;28;20042;-69
2023/08/16 03:30:32;;;;;;;21.23;10.15;;;;;;;22.33;88.89;100263.88;5014017;28;20092;-69
2023/08/16 03:32:57;;;;;;;17.85;11.93;;;;;;;22.29;89.28;100268.31;5014130;28;20469;-69
2023/08/16 03:35:23;;;;;;;27.52;20.60;;;;;;;22.25;89.64;100277.16;5013897;28;20034;-70
2023/08/16 03:37:48;;;;;;;29.50;25.70;;;;;;;21.97;89.51;100214.47;5013661;28;20593;-69
2023/08/16 03:40:14;;;;;;;23.05;18.10;;;;;;;22.11;89.47;100217.75;5014085;28;20026;-70
2023/08/16 03:42:40;;;;;;;16.88;13.43;;;;;;;22.51;87.38;100275.94;5013361;28;20026;-74
2023/08/16 03:45:05;;;;;;;15.43;11.73;;;;;;;22.52;86.91;100262.75;5013409;28;20033;-71
2023/08/16 03:47:32;;;;;;;23.30;14.35;;;;;;;22.58;87.93;100273.19;5013512;28;20030;-68
2023/08/16 03:49:59;;;;;;;17.33;13.15;;;;;;;22.57;87.70;100267.97;5013381;28;20026;-69
2023/08/16 03:52:25;;;;;;;21.38;12.88;;;;;;;22.56;88.25;100266.22;5025454;28;20412;-74
2023/08/16 03:54:52;;;;;;;18.33;11.13;;;;;;;22.40;88.13;100234.88;5018473;28;20030;-69
2023/08/16 03:57:18;;;;;;;13.35;11.75;;;;;;;22.75;87.37;100272.91;5023064;28;20444;-68
2023/08/16 03:59:43;;;;;;;17.30;10.93;;;;;;;22.87;86.98;100276.25;5023882;28;20096;-69
2023/08/16 04:02:09;;;;;;;19.13;11.20;;;;;;;22.74;86.72;100275.56;5032691;28;20030;-71
2023/08/16 04:04:34;;;;;;;16.17;9.65;;;;;;;22.75;85.74;100280.81;5024251;28;20492;-76
2023/08/16 04:06:59;;;;;;;14.23;9.80;;;;;;;22.77;85.88;100283.41;5012897;28;20045;-69
2023/08/16 04:09:26;;;;;;;15.43;10.40;;;;;;;22.80;86.27;100287.75;5015059;28;20033;-69
2023/08/16 04:11:52;;;;;;;20.17;10.70;;;;;;;22.75;87.36;100283.44;5023698;28;20034;-68
2023/08/16 04:14:17;;;;;;;20.80;10.52;;;;;;;22.63;87.42;100273.13;5016227;28;20056;-70
2023/08/16 04:16:42;;;;;;;16.52;10.02;;;;;;;22.56;87.61;100267.06;5015614;28;20061;-70
2023/08/16 04:19:08;;;;;;;17.90;10.65;;;;;;;22.74;87.95;100289.59;5012960;28;20030;-70
2023/08/16 04:21:33;;;;;;;17.40;11.88;;;;;;;22.70;88.28;100284.41;5012789;28;20144;-70
2023/08/16 04:23:59;;;;;;;17.90;11.30;;;;;;;22.43;91.52;100282.19;5012416;28;20084;-69
2023/08/16 04:26:24;;;;;;;18.90;14.75;;;;;;;22.50;89.84;100295.25;4995018;28;20030;-72
2023/08/16 04:28:49;;;;;;;21.52;17.05;;;;;;;22.55;90.30;100293.41;5016707;28;20022;-73
2023/08/16 04:31:15;;;;;;;26.35;17.38;;;;;;;22.45;90.39;100280.41;5021574;28;20498;-70
2023/08/16 04:33:40;;;;;;;18.92;12.45;;;;;;;22.25;89.95;100242.97;5012566;28;20424;-70
2023/08/16 04:36:06;;;;;;;15.88;10.63;;;;;;;22.48;90.19;100294.38;5012663;28;20042;-71
2023/08/16 04:38:31;;;;;;;13.05;10.13;;;;;;;22.36;90.03;100284.91;5013107;28;20056;-69
2023/08/16 04:40:57;;;;;;;13.00;9.65;;;;;;;22.52;90.34;100293.44;5012744;28;20445;-70
2023/08/16 04:43:23;;;;;;;16.55;11.07;;;;;;;22.51;90.33;100279.44;5012702;28;20030;-70
2023/08/16 04:45:48;;;;;;;12.73;9.25;;;;;;;22.60;90.75;100288.94;4977546;28;20048;-70
2023/08/16 04:48:14;;;;;;;11.48;9.05;;;;;;;22.63;90.06;100283.66;5012559;28;20025;-71
2023/08/16 04:50:39;;;;;;;13.20;8.60;;;;;;;22.75;90.06;100293.97;5012754;28;20413;-69
2023/08/16 04:53:05;;;;;;;13.77;9.40;;;;;;;22.87;89.17;100292.03;5012211;28;20026;-70
2023/08/16 04:55:30;;;;;;;13.45;8.73;;;;;;;22.94;89.02;100293.63;5012768;28;20032;-70
2023/08/16 04:57:55;;;;;;;13.38;9.35;;;;;;;23.02;88.11;100291.75;4994592;28;20456;-70
2023/08/16 05:00:21;;;;;;;51.30;11.15;;;;;;;22.74;88.71;100236.06;5012477;28;20034;-70
2023/08/16 05:02:47;;;;;;;14.65;9.00;;;;;;;23.08;89.13;100291.66;5012354;28;20065;-71
2023/08/16 05:05:12;;;;;;;16.67;9.32;;;;;;;23.09;89.40;100276.72;5012322;28;20044;-71
2023/08/16 05:07:38;;;;;;;17.85;8.82;;;;;;;23.22;88.47;100287.94;5012860;28;20038;-70
2023/08/16 05:10:04;;;;;;;11.85;9.27;;;;;;;23.27;89.29;100286.09;5031836;28;20029;-70
2023/08/16 05:12:30;;;;;;;12.95;9.50;;;;;;;23.42;89.34;100292.84;5014024;28;20395;-71
2023/08/16 05:14:55;;;;;;;12.57;9.80;;;;;;;23.51;89.24;100290.00;4980611;28;20041;-70
2023/08/16 05:17:21;;;;;;;11.00;9.25;;;;;;;23.65;88.55;100299.41;5032287;28;20025;-70
2023/08/16 05:19:46;;;;;;;14.40;9.27;;;;;;;23.75;87.82;100293.94;5031790;28;20021;-70
2023/08/16 05:22:11;;;;;;;15.45;9.77;;;;;;;23.49;90.40;100239.13;5031679;28;20479;-69
2023/08/16 05:24:37;;;;;;;13.18;10.45;;;;;;;23.87;91.11;100291.94;5031569;28;20022;-69
2023/08/16 05:27:02;;;;;;;14.77;10.60;;;;;;;23.94;93.33;100293.59;5031352;28;20113;-72
2023/08/16 05:29:28;;;;;;;15.60;9.95;;;;;;;23.99;91.81;100299.63;5031478;28;20076;-70
2023/08/16 05:31:53;;;;;;;15.25;10.70;;;;;;;24.05;91.79;100307.41;5031655;28;20025;-70
2023/08/16 05:34:20;;;;;;;17.33;10.35;;;;;;;24.12;91.97;100288.81;5031630;28;20033;-74
2023/08/16 05:36:50;;;;;;;12.45;9.43;;;;;;;24.28;90.48;100297.25;5013048;28;20037;-69
2023/08/16 05:39:16;;;;;;;13.88;8.77;;;;;;;24.41;89.20;100300.47;5031784;28;20139;-70
2023/08/16 05:41:42;;;;;;;14.98;9.10;;;;;;;24.50;88.23;100297.59;5031235;28;20073;-72
2023/08/16 05:44:07;;;;;;;12.85;8.23;;;;;;;24.60;89.10;100307.06;5031335;28;20029;-69
2023/08/16 05:46:33;;;;;;;13.60;9.50;;;;;;;24.70;88.02;100310.38;5031175;28;20033;-76
2023/08/16 05:49:00;;;;;;;14.55;9.10;;;;;;;24.75;89.30;100291.75;4980150;28;20033;-71
2023/08/16 05:51:26;;;;;;;15.65;9.30;;;;;;;24.84;88.97;100300.31;5031299;28;20037;-69
2023/08/16 05:53:51;;;;;;;13.05;9.13;;;;;;;24.90;89.16;100303.72;5030859;28;20025;-70
2023/08/16 05:56:17;;;;;;;15.68;9.32;;;;;;;24.95;87.57;100307.09;5030719;28;20131;-71
2023/08/16 05:58:42;;;;;;;18.40;9.25;;;;;;;24.93;87.75;100288.66;5031245;28;20017;-70
2023/08/16 06:01:08;;;;;;;13.43;7.90;;;;;;;25.09;85.77;100306.78;4979144;28;20120;-70
2023/08/16 06:03:33;;;;;;;20.83;8.77;;;;;;;25.15;85.77;100315.41;5031046;28;20033;-69
2023/08/16 06:05:59;;;;;;;17.08;9.20;;;;;;;25.20;86.15;100302.06;5030886;28;20057;-72
2023/08/16 06:08:24;;;;;;;15.52;8.25;;;;;;;25.29;83.98;100303.59;5030677;28;20033;-75
2023/08/16 06:10:49;;;;;;;16.42;8.77;;;;;;;25.38;85.04;100303.38;5030825;28;20087;-75
2023/08/16 06:13:15;;;;;;;14.43;8.57;;;;;;;25.42;85.84;100304.16;5030980;28;20057;-71
2023/08/16 06:15:40;;;;;;;13.20;7.13;;;;;;;25.47;82.63;100312.81;5030638;28;20420;-70
2023/08/16 06:18:06;;;;;;;11.18;7.45;;;;;;;25.47;81.00;100308.44;5030613;28;20046;-74
2023/08/16 06:20:31;;;;;;;19.67;8.00;;;;;;;25.32;81.78;100292.94;5030585;28;20037;-75
2023/08/16 06:22:56;;;;;;;11.55;7.70;;;;;;;25.39;82.35;100296.34;5030542;28;20038;-70
2023/08/16 06:25:22;;;;;;;10.20;7.05;;;;;;;25.38;80.30;100302.53;5030585;28;20033;-70
2023/08/16 06:27:48;;;;;;;11.55;7.45;;;;;;;25.24;80.99;100264.09;5030469;28;20029;-74
2023/08/16 06:30:14;;;;;;;12.15;7.60;;;;;;;25.46;79.68;100305.81;5030401;28;20476;-71
2023/08/16 06:32:39;;;;;;;13.88;8.07;;;;;;;25.45;79.31;100318.16;5030672;28;20088;-70
2023/08/16 06:35:08;;;;;;;11.63;6.95;;;;;;;25.45;80.29;100317.31;5030298;28;20029;-73
2023/08/16 06:37:34;;;;;;;9.98;7.38;;;;;;;25.44;79.57;100318.22;5030283;28;20132;-71
2023/08/16 06:40:19;;;;;;;14.13;7.13;;;;;;;25.50;79.19;100316.25;4969134;28;20534;-70
2023/08/16 06:42:44;;;;;;;15.00;7.40;;;;;;;25.51;80.20;100309.22;4969156;28;20056;-70
2023/08/16 06:45:10;;;;;;;12.35;7.43;;;;;;;25.61;80.53;100318.63;4968992;28;20101;-71
2023/08/16 06:47:35;;;;;;;17.13;6.90;;;;;;;25.65;80.65;100317.59;4968834;28;20121;-74
2023/08/16 06:50:01;;;;;;;11.32;6.70;;;;;;;25.74;79.96;100316.47;4968998;28;20042;-70
2023/08/16 06:52:27;;;;;;;13.00;6.68;;;;;;;25.84;79.94;100302.09;4968820;28;20030;-71
2023/08/16 06:54:52;;;;;;;12.07;7.13;;;;;;;26.09;79.26;100316.41;4968836;28;20110;-70
2023/08/16 06:57:18;;;;;;;14.02;6.93;;;;;;;26.14;77.15;100317.13;4969069;28;20035;-71
2023/08/16 06:59:44;;;;;;;12.35;7.50;;;;;;;26.10;78.69;100308.41;4968930;28;20078;-71
2023/08/16 07:02:14;;;;;;;12.93;6.68;;;;;;;26.15;77.00;100332.09;4968849;28;20174;-69
2023/08/16 07:04:42;;;;;;;14.65;7.60;;;;;;;26.13;78.56;100312.75;4968703;28;20768;-70
2023/08/16 07:07:08;;;;;;;12.48;7.60;;;;;;;26.11;77.87;100318.09;4952188;28;20034;-71
2023/08/16 07:09:33;;;;;;;13.18;7.68;;;;;;;25.78;77.78;100244.09;4968819;28;20418;-73
2023/08/16 07:11:59;;;;;;;15.63;7.53;;;;;;;26.13;78.10;100308.34;5016000;28;20055;-71
2023/08/16 07:14:24;;;;;;;12.57;6.70;;;;;;;26.19;77.86;100291.38;5029995;28;20096;-71
2023/08/16 07:16:51;;;;;;;14.15;7.40;;;;;;;26.30;79.60;100299.00;5029518;28;20025;-70
2023/08/16 07:19:17;;;;;;;10.65;6.78;;;;;;;26.44;77.22;100299.44;5030136;28;20120;-71
2023/08/16 07:21:42;;;;;;;13.35;7.25;;;;;;;26.56;76.93;100287.56;5029301;28;20100;-73
2023/08/16 07:24:07;;;;;;;15.63;6.93;;;;;;;26.72;76.43;100297.69;5029818;28;20060;-70
2023/08/16 07:26:33;;;;;;;11.15;6.65;;;;;;;26.87;75.54;100294.53;5029605;28;20084;-71
2023/08/16 07:28:58;;;;;;;15.38;7.10;;;;;;;26.95;77.25;100283.69;5029932;28;20029;-73
2023/08/16 07:31:24;;;;;;;9.63;6.80;;;;;;;26.77;75.70;100243.66;5029656;28;20022;-71
2023/08/16 07:33:49;;;;;;;10.65;6.82;;;;;;;27.13;77.04;100301.59;5011846;28;20405;-72
2023/08/16 07:36:14;;;;;;;18.85;7.45;;;;;;;27.18;77.38;100289.97;5029305;28;20021;-70
2023/08/16 07:38:40;;;;;;;16.88;7.47;;;;;;;27.27;76.46;100285.22;5029814;28;20050;-72
2023/08/16 07:41:06;;;;;;;27.23;10.00;;;;;;;27.39;76.22;100301.59;5029543;28;20029;-75
2023/08/16 07:43:31;;;;;;;22.13;9.48;;;;;;;27.43;75.46;100300.63;5028882;28;20029;-71
2023/08/16 07:45:56;;;;;;;22.23;9.05;;;;;;;27.47;76.97;100304.88;5029661;28;20036;-72
2023/08/16 07:48:22;;;;;;;17.17;8.95;;;;;;;27.51;75.52;100303.84;5029647;28;20034;-71
2023/08/16 07:50:49;;;;;;;14.50;7.05;;;;;;;27.57;74.16;100300.97;5029342;28;20441;-72
2023/08/16 07:53:14;;;;;;;16.17;7.68;;;;;;;27.29;76.22;100256.00;5029684;28;20076;-76
2023/08/16 07:55:40;;;;;;;14.98;7.22;;;;;;;27.58;75.45;100307.16;5029507;28;20029;-71
2023/08/16 07:58:05;;;;;;;13.40;6.82;;;;;;;27.66;76.63;100307.72;5029822;28;20030;-71
2023/08/16 08:00:31;;;;;;;17.38;7.30;;;;;;;27.58;76.06;100278.81;5032572;28;20104;-76
2023/08/16 08:02:56;;;;;;;20.75;7.28;;;;;;;27.65;76.23;100286.56;5033148;28;20034;-76
2023/08/16 08:05:22;;;;;;;14.80;7.50;;;;;;;27.77;77.52;100302.03;5033138;28;20029;-71
2023/08/16 08:07:48;;;;;;;18.45;7.55;;;;;;;27.71;76.95;100292.50;5033097;28;20480;-75
2023/08/16 08:10:15;;;;;;;15.02;7.82;;;;;;;27.81;75.66;100303.63;5032982;28;20030;-72
2023/08/16 08:12:44;;;;;;;16.92;7.35;;;;;;;27.67;77.26;100263.50;5032651;28;20033;-71
2023/08/16 08:15:10;;;;;;;15.57;7.28;;;;;;;27.91;76.06;100294.41;5032854;28;20030;-70
2023/08/16 08:17:35;;;;;;;16.75;7.28;;;;;;;27.88;75.58;100291.88;5033193;28;20056;-71
2023/08/16 08:20:00;;;;;;;11.02;7.45;;;;;;;27.79;77.56;100260.41;5032725;28;20025;-72
2023/08/16 08:22:26;;;;;;;12.73;7.03;;;;;;;27.93;78.61;100292.53;5032555;28;20030;-72
2023/08/16 08:24:52;;;;;;;13.63;7.07;;;;;;;27.72;76.72;100232.38;5032994;28;20029;-72
2023/08/16 08:27:17;;;;;;;15.60;7.95;;;;;;;28.05;78.20;100287.72;5032558;28;20048;-70
2023/08/16 08:29:42;;;;;;;19.77;8.18;;;;;;;28.08;75.98;100291.13;5032886;28;20062;-77
2023/08/16 08:32:08;;;;;;;17.27;7.43;;;;;;;28.11;76.49;100284.81;5032364;28;20484;-71
2023/08/16 08:34:34;;;;;;;13.52;7.60;;;;;;;28.23;77.23;100280.84;5032151;28;20093;-70
2023/08/16 08:37:00;;;;;;;20.17;7.95;;;;;;;28.24;76.65;100280.78;5032679;28;20866;-74
2023/08/16 08:39:28;;;;;;;14.82;7.35;;;;;;;28.33;77.35;100289.31;5031365;28;20056;-70
2023/08/16 08:41:55;;;;;;;12.80;7.07;;;;;;;28.33;76.60;100274.22;5032433;28;20409;-73
2023/08/16 08:44:22;;;;;;;15.75;6.60;;;;;;;28.47;75.37;100286.09;5032758;28;20096;-70
2023/08/16 08:46:48;;;;;;;10.73;6.50;;;;;;;28.62;75.62;100284.59;5032415;28;20033;-72
2023/08/16 08:49:21;;;;;;;20.90;8.02;;;;;;;28.67;75.33;100287.94;5031998;28;20481;-72
2023/08/16 08:51:46;;;;;;;18.48;7.32;;;;;;;28.77;76.48;100270.69;5032094;28;20040;-71
2023/08/16 08:54:12;;;;;;;17.98;7.30;;;;;;;28.97;74.99;100283.13;5025704;28;20417;-72
2023/08/16 08:56:38;;;;;;;14.45;7.75;;;;;;;29.19;73.99;100274.25;5004124;28;20025;-73
2023/08/16 08:59:05;;;;;;;16.15;7.30;;;;;;;29.05;72.84;100227.84;5021041;28;20165;-73
2023/08/16 09:01:31;;;;;;;18.40;7.07;;;;;;;29.55;72.76;100276.22;5021746;28;20041;-70
2023/08/16 09:04:03;;;;;;;19.65;6.53;;;;;;;29.74;70.12;100276.22;5015017;28;20489;-70
2023/08/16 09:06:28;;;;;;;17.45;6.70;;;;;;;29.63;69.05;100230.66;5011922;28;20493;-70
2023/08/16 09:08:56;;;;;;;14.25;6.43;;;;;;;29.86;68.93;100270.34;5011898;28;20030;-70
2023/08/16 09:11:22;;;;;;;17.00;6.97;;;;;;;29.76;70.63;100261.06;5010898;28;20033;-72
2023/08/16 09:13:48;;;;;;;16.38;7.78;;;;;;;29.75;69.59;100269.13;5031652;28;20084;-71
2023/08/16 09:16:14;;;;;;;15.82;7.03;;;;;;;29.89;67.64;100269.38;5031931;28;20029;-72
2023/08/16 09:18:47;;;;;;;12.55;6.60;;;;;;;29.63;66.07;100220.00;5028830;28;20482;-69
2023/08/16 09:21:14;;;;;;;14.30;6.30;;;;;;;29.69;69.08;100230.34;5004468;28;20588;-71
2023/08/16 09:23:39;;;;;;;14.40;6.25;;;;;;;30.18;68.32;100259.13;5016480;28;20456;-73
2023/08/16 09:26:17;;;;;;;12.07;7.50;;;;;;;30.21;67.93;100237.69;5020995;28;20026;-74
2023/08/16 09:28:43;;;;;;;14.95;7.18;;;;;;;30.34;66.46;100249.47;5031235;28;20021;-73
2023/08/16 09:31:08;;;;;;;13.88;5.53;;;;;;;30.51;64.68;100263.78;5014254;28;20033;-73
2023/08/16 09:33:35;;;;;;;17.55;6.65;;;;;;;30.51;65.49;100237.13;5027676;28;20511;-73
2023/08/16 09:36:01;;;;;;;9.38;6.13;;;;;;;30.57;63.67;100255.47;5031075;28;20025;-72
2023/08/16 09:38:27;;;;;;;10.32;6.68;;;;;;;30.52;67.14;100260.19;5026767;28;20049;-73
2023/08/16 09:40:52;;;;;;;14.93;7.28;;;;;;;30.56;67.99;100250.22;5020936;28;20499;-75
2023/08/16 09:43:19;;;;;;;17.95;7.07;;;;;;;30.45;66.81;100256.91;5027541;28;20421;-74
2023/08/16 09:45:53;;;;;;;13.35;7.25;;;;;;;30.36;65.98;100259.16;5030323;28;20481;-71
2023/08/16 09:48:20;;;;;;;15.80;7.43;;;;;;;30.25;65.44;100228.59;5011815;28;20040;-70
2023/08/16 09:50:46;;;;;;;14.57;6.78;;;;;;;30.62;66.03;100265.91;5022725;28;20037;-72
2023/08/16 09:53:12;;;;;;;26.67;8.10;;;;;;;30.79;65.36;100263.25;5021273;28;20041;-73
2023/08/16 09:55:40;;;;;;;10.98;6.22;;;;;;;30.76;65.03;100275.88;5019222;28;20023;-73
2023/08/16 09:58:07;;;;;;;14.20;6.15;;;;;;;30.73;65.26;100252.91;5016643;28;20061;-72
2023/08/16 10:00:34;;;;;;;12.15;6.78;;;;;;;30.93;65.25;100261.66;5010944;28;20026;-72
2023/08/16 10:03:01;;;;;;;15.23;6.82;;;;;;;31.23;66.44;100264.56;5007380;28;20092;-69
2023/08/16 10:05:26;;;;;;;13.07;6.47;;;;;;;31.14;63.64;100231.25;5020162;28;20057;-74
2023/08/16 10:07:53;;;;;;;15.30;6.07;;;;;;;31.02;64.48;100255.88;5019139;28;20030;-75
2023/08/16 10:10:18;;;;;;;12.50;6.60;;;;;;;30.86;64.98;100244.28;4993927;28;20080;-73
2023/08/16 10:12:47;;;;;;;12.23;6.28;;;;;;;31.04;64.34;100259.31;5012119;28;20500;-72
2023/08/16 10:15:14;;;;;;;16.10;6.53;;;;;;;30.94;63.02;100240.28;5017153;28;20092;-72
2023/08/16 10:17:41;;;;;;;13.45;6.18;;;;;;;31.20;62.70;100258.53;5023460;28;20030;-72
2023/08/16 10:20:26;;;;;;;16.95;6.95;;;;;;;31.32;61.78;100255.22;5018439;28;20044;-74
2023/08/16 10:22:58;;;;;;;11.93;6.28;;;;;;;31.46;62.61;100244.66;5022146;28;20095;-72
2023/08/16 10:25:27;;;;;;;13.98;6.25;;;;;;;31.59;62.29;100254.66;5037973;28;20021;-71
2023/08/16 10:27:55;;;;;;;14.93;5.95;;;;;;;31.90;61.12;100248.53;5019522;28;20040;-70
2023/08/16 10:30:23;;;;;;;11.73;6.00;;;;;;;31.92;61.39;100238.63;5021585;28;20129;-71
2023/08/16 10:33:02;;;;;;;13.27;6.15;;;;;;;31.54;64.18;100198.03;4994317;28;20092;-74
2023/08/16 10:35:29;;;;;;;11.50;6.30;;;;;;;31.59;63.58;100228.84;5009899;28;20551;-72
2023/08/16 10:37:57;;;;;;;13.10;5.78;;;;;;;31.27;63.85;100206.59;5025349;28;20560;-73
2023/08/16 10:40:23;;;;;;;16.35;6.72;;;;;;;31.38;65.17;100222.88;5029831;28;20586;-72
2023/08/16 10:42:51;;;;;;;14.90;6.03;;;;;;;31.49;64.35;100224.09;5031587;28;20033;-72
2023/08/16 10:45:33;;;;;;;11.60;6.30;;;;;;;31.67;66.66;100224.94;5025579;28;20036;-70
2023/08/16 10:48:08;;;;;;;8.77;5.38;;;;;;;31.58;62.14;100199.59;5012715;28;20116;-71
2023/08/16 10:50:34;;;;;;;15.80;6.28;;;;;;;31.81;63.39;100205.50;5010210;28;20034;-72
2023/08/16 10:53:00;;;;;;;11.40;5.88;;;;;;;31.74;62.92;100205.84;5010019;28;20022;-72
2023/08/16 10:55:26;;;;;;;10.73;6.10;;;;;;;31.58;63.57;100211.13;5017042;28;20037;-72
2023/08/16 10:57:52;;;;;;;15.85;6.57;;;;;;;31.46;63.71;100188.63;5014796;28;20022;-70
2023/08/16 11:00:19;;;;;;;12.70;6.22;;;;;;;31.36;64.23;100199.91;5009797;28;20556;-73
2023/08/16 11:02:47;;;;;;;12.48;6.35;;;;;;;31.42;63.45;100197.75;4968260;28;20106;-74
2023/08/16 11:05:20;;;;;;;12.32;6.30;;;;;;;31.55;62.76;100178.41;4968434;28;20054;-72
2023/08/16 11:07:47;;;;;;;14.52;6.22;;;;;;;31.61;64.35;100119.38;4968460;28;20575;-75
2023/08/16 11:10:13;;;;;;;12.48;5.90;;;;;;;32.08;58.22;100155.84;4968698;28;20479;-72
2023/08/16 11:12:39;;;;;;;13.93;6.53;;;;;;;32.34;60.54;100168.63;4975265;28;20041;-74
2023/08/16 11:15:05;;;;;;;16.80;6.78;;;;;;;32.39;58.89;100134.53;4987664;28;20596;-74